Return to UIUC Weather Page  
Time Weather Temp Dew Pt Relative Humidity Winds Speed Gust Visibility Pressure Heat Index Wind Chill
Today
1:53PM Clear 75 55 49% E 6 mph 10 mi 1020.4 mb 30.14 in
1:53PM Clear 75 55 49% E 6 mph 10 mi 1020.4 mb 30.14 in
12:53PM Clear 76 56 49% E 3 mph 10 mi 1020.7 mb 30.15 in
11:53AM Clear 75 55 49% Variable 5 mph 10 mi 1020.9 mb 30.16 in
9:53AM Clear 73 56 55% Variable 3 mph 10 mi 1021.1 mb 30.16 in
7:53AM Sunny 66 57 72% E 3 mph 10 mi 1020.9 mb 30.15 in
6:53AM Sunny 57 55 93% N 3 mph 10 mi 1020.8 mb 30.15 in
6:53AM Sunny 57 55 93% N 3 mph 10 mi 1020.8 mb 30.15 in
5:53AM Clear 54 52 92% Calm 10 mi 1020.5 mb 30.14 in
4:53AM Clear 54 52 92% Calm 10 mi 1020.3 mb 30.14 in
2:53AM Clear 55 52 89% Calm 10 mi 1019.7 mb 30.12 in
1:53AM Clear 55 54 96% Calm 10 mi 1019.6 mb 30.12 in
12:53AM Clear 57 54 89% E 3 mph 10 mi 1019.6 mb 30.12 in
Yesterday
Time Weather Temp Dew Pt Relative Humidity Winds Speed Gust Visibility Pressure Heat Index Wind Chill
11:53PM Clear 57 54 89% Calm 10 mi 1019.6 mb 30.12 in
10:53PM Clear 57 55 93% Calm 10 mi 1019.3 mb 30.11 in
8:53PM Clear 63 57 80% E 3 mph 10 mi 1019.0 mb 30.10 in
8:53PM Clear 63 57 80% E 3 mph 10 mi 1019.0 mb 30.10 in
7:53PM Clear 66 61 83% E 3 mph 10 mi 1018.9 mb 30.10 in
7:53PM Clear 66 61 83% E 3 mph 10 mi 1018.9 mb 30.10 in
6:53PM Clear 71 57 61% E 3 mph 10 mi 1019.1 mb 30.10 in
6:53PM Clear 71 57 61% E 3 mph 10 mi 1019.1 mb 30.10 in
5:53PM Clear 73 54 51% E 6 mph 10 mi 1019.2 mb 30.11 in
4:53PM Clear 75 52 44% Calm 10 mi 1019.7 mb 30.12 in
Observations made at University of Illinois Willard Airport